Time;durP1;ratioP1;P1;durP2;ratioP2;P2;SDS_P1;SDS_P2;PMS_P1;PMS_P2;Temp;Humidity;BMP_temperature;BMP_pressure;BME280_temperature;BME280_humidity;BME280_pressure;Samples;Min_cycle;Max_cycle;Signal;HPM_P1;HPM_P2
2023/03/24 00:02:41;;;;;;;4.60;3.10;;;11.40;99.90;;;;;;2610321;54;20176;-72
2023/03/24 00:08:29;;;;;;;6.47;2.87;;;11.40;99.90;;;;;;2610579;54;20657;-71
2023/03/24 00:17:41;;;;;;;6.47;3.00;;;11.40;99.90;;;;;;2610478;54;21159;-72
2023/03/24 00:23:31;;;;;;;4.57;2.90;;;11.40;99.90;;;;;;2610281;54;20486;-72
2023/03/24 00:29:18;;;;;;;3.73;2.60;;;11.40;99.90;;;;;;2610663;54;20390;-75
2023/03/24 00:35:08;;;;;;;5.20;3.40;;;11.40;99.90;;;;;;2610075;54;20502;-75
2023/03/24 00:40:55;;;;;;;7.97;2.40;;;11.50;99.90;;;;;;2613802;54;20443;-74
2023/03/24 00:46:45;;;;;;;4.43;3.20;;;11.50;99.90;;;;;;2613795;54;20183;-75
2023/03/24 00:49:52;;;;;;;6.30;3.40;;;11.50;99.90;;;;;;2612259;39;20789;-74
2023/03/24 00:52:20;;;;;;;4.43;2.73;;;11.50;99.90;;;;;;2611558;47;20448;-75
2023/03/24 01:01:33;;;;;;;5.03;2.40;;;11.50;99.90;;;;;;2611539;39;20687;-75
2023/03/24 01:07:23;;;;;;;3.03;2.50;;;11.60;99.90;;;;;;2612353;54;20495;-74
2023/03/24 01:13:11;;;;;;;4.30;2.40;;;11.60;99.90;;;;;;2613338;54;20388;-75
2023/03/24 01:18:59;;;;;;;3.13;2.20;;;11.50;99.90;;;;;;2612867;54;20661;-74
2023/03/24 01:24:48;;;;;;;6.40;2.77;;;11.50;99.90;;;;;;2612301;54;20530;-75
2023/03/24 01:30:36;;;;;;;4.40;3.10;;;11.50;99.90;;;;;;2612189;54;21170;-74
2023/03/24 01:36:23;;;;;;;3.40;2.50;;;11.60;99.90;;;;;;2612330;54;20158;-75
2023/03/24 01:55:06;;;;;;;5.30;3.30;;;11.70;99.90;;;;;;2611183;54;20399;-75
2023/03/24 02:04:15;;;;;;;4.87;3.57;;;11.60;99.90;;;;;;2610681;54;20399;-75
2023/03/24 02:10:08;;;;;;;4.90;3.53;;;11.70;99.90;;;;;;2609823;54;20134;-73
2023/03/24 02:46:12;;;;;;;3.97;3.53;;;11.70;99.90;;;;;;2612802;54;20431;-74
2023/03/24 03:04:59;;;;;;;4.13;3.30;;;11.90;99.90;;;;;;2611560;54;20458;-75
2023/03/24 03:07:40;;;;;;;6.00;3.87;;;12.00;99.90;;;;;;2612494;54;20423;-74
2023/03/24 03:20:12;;;;;;;6.73;4.20;;;12.30;99.90;;;;;;2612049;54;20426;-75
2023/03/24 03:26:05;;;;;;;4.23;3.37;;;12.20;99.90;;;;;;2611326;54;21242;-75
2023/03/24 03:35:30;;;;;;;5.50;3.80;;;12.50;99.90;;;;;;2611910;46;20454;-74
2023/03/24 03:41:19;;;;;;;3.63;3.07;;;12.60;99.90;;;;;;2609980;54;20459;-71
2023/03/24 03:47:06;;;;;;;4.73;3.90;;;12.70;99.90;;;;;;2611949;54;20410;-71
2023/03/24 03:52:53;;;;;;;4.53;3.77;;;12.60;99.90;;;;;;2610506;54;20709;-71
2023/03/24 03:58:41;;;;;;;5.00;3.33;;;12.50;99.90;;;;;;2612140;54;21062;-71
2023/03/24 04:40:50;;;;;;;4.30;2.70;;;12.20;99.90;;;;;;2612930;54;20415;-72
2023/03/24 04:46:38;;;;;;;4.00;2.80;;;12.40;99.90;;;;;;2612614;54;21021;-72
2023/03/24 04:52:26;;;;;;;3.73;2.93;;;12.30;99.90;;;;;;2611833;54;22699;-71
2023/03/24 04:58:13;;;;;;;3.13;2.73;;;12.40;99.90;;;;;;2611365;54;20930;-72
2023/03/24 05:07:49;;;;;;;3.60;2.83;;;12.50;99.90;;;;;;2610484;54;21252;-72
2023/03/24 05:13:36;;;;;;;4.07;3.13;;;12.50;99.90;;;;;;2610518;54;20374;-72
2023/03/24 05:19:24;;;;;;;3.93;3.00;;;12.50;99.90;;;;;;2612425;54;20126;-71
2023/03/24 05:25:13;;;;;;;3.63;2.43;;;12.40;99.90;;;;;;2613651;54;20165;-72
2023/03/24 05:31:00;;;;;;;5.70;2.17;;;12.40;99.90;;;;;;2613835;54;20426;-71
2023/03/24 05:36:48;;;;;;;3.53;2.30;;;12.30;99.90;;;;;;2613127;39;20647;-71
2023/03/24 05:42:36;;;;;;;3.90;2.07;;;11.90;99.90;;;;;;2611330;54;20169;-70
2023/03/24 05:48:24;;;;;;;8.80;3.40;;;11.90;99.90;;;;;;2611444;54;20218;-72
2023/03/24 05:54:12;;;;;;;5.07;3.67;;;11.60;99.90;;;;;;2611753;54;20134;-71
2023/03/24 05:59:59;;;;;;;7.33;3.50;;;11.50;99.90;;;;;;2613679;54;20648;-71
2023/03/24 06:03:17;;;;;;;4.57;3.30;;;11.50;99.90;;;;;;2612133;54;20399;-70
2023/03/24 06:05:44;;;;;;;5.87;3.70;;;11.40;99.90;;;;;;2611813;47;20693;-70
2023/03/24 06:11:32;;;;;;;7.50;3.73;;;11.30;99.90;;;;;;2614422;54;20554;-71
2023/03/24 06:17:20;;;;;;;4.50;2.70;;;11.20;99.90;;;;;;2614471;54;20255;-74
2023/03/24 06:23:07;;;;;;;4.00;3.07;;;11.20;99.90;;;;;;2611534;54;20422;-70
2023/03/24 06:28:56;;;;;;;4.23;2.83;;;10.90;99.90;;;;;;2614340;54;20239;-72
2023/03/24 06:34:43;;;;;;;5.10;2.90;;;10.70;99.90;;;;;;2610792;54;20403;-70
2023/03/24 06:40:32;;;;;;;6.60;3.30;;;11.30;99.90;;;;;;2610864;54;20449;-71
2023/03/24 06:46:19;;;;;;;5.07;2.93;;;11.40;99.90;;;;;;2612505;54;20459;-73
2023/03/24 06:52:07;;;;;;;6.07;2.83;;;12.30;99.90;;;;;;2612220;54;20154;-71
2023/03/24 06:57:55;;;;;;;5.70;3.83;;;12.50;99.90;;;;;;2611672;54;22221;-70
2023/03/24 07:07:48;;;;;;;6.30;3.63;;;12.40;99.90;;;;;;2606414;39;20795;-71
2023/03/24 07:13:36;;;;;;;6.33;3.17;;;13.00;99.90;;;;;;2612048;39;20783;-70
2023/03/24 07:19:24;;;;;;;3.90;2.90;;;12.90;99.90;;;;;;2612902;54;20133;-70
2023/03/24 07:25:13;;;;;;;5.50;3.63;;;12.60;99.90;;;;;;2611503;54;20403;-70
2023/03/24 07:31:09;;;;;;;6.67;3.47;;;13.20;99.90;;;;;;2610521;54;20391;-70
2023/03/24 07:36:57;;;;;;;6.60;4.23;;;12.50;99.90;;;;;;2605932;54;20499;-70
2023/03/24 07:42:46;;;;;;;9.07;5.13;;;12.90;94.20;;;;;;2609133;54;20126;-70
2023/03/24 07:48:33;;;;;;;11.17;4.60;;;13.50;88.70;;;;;;2609853;54;20438;-70
2023/03/24 07:54:21;;;;;;;12.17;5.30;;;14.00;81.40;;;;;;2610385;31;20609;-71
2023/03/24 08:03:14;;;;;;;6.03;4.67;;;14.10;62.80;;;;;;2612481;54;20386;-69
2023/03/24 08:05:40;;;;;;;10.27;5.40;;;14.40;58.50;;;;;;2611618;47;20418;-70
2023/03/24 08:11:28;;;;;;;11.90;6.20;;;14.30;68.80;;;;;;2612420;39;20536;-69
2023/03/24 08:17:15;;;;;;;6.63;5.17;;;13.80;74.70;;;;;;2612147;54;20251;-69
2023/03/24 08:23:03;;;;;;;5.70;4.67;;;14.20;73.50;;;;;;2609766;54;20181;-69
2023/03/24 08:26:21;;;;;;;6.37;5.50;;;14.70;58.40;;;;;;2609880;54;20407;-70
2023/03/24 08:28:48;;;;;;;8.30;7.53;;;14.60;61.40;;;;;;2605187;54;20433;-71
2023/03/24 08:34:36;;;;;;;6.40;5.80;;;14.90;63.20;;;;;;2611222;54;21172;-71
2023/03/24 08:40:24;;;;;;;6.70;6.10;;;14.60;57.30;;;;;;2612439;54;20262;-71
2023/03/24 08:46:14;;;;;;;6.03;5.63;;;14.50;56.30;;;;;;2612252;54;21704;-70
2023/03/24 08:52:02;;;;;;;7.40;6.27;;;13.70;80.90;;;;;;2612011;54;20395;-69
2023/03/24 08:57:50;;;;;;;8.37;7.00;;;13.90;66.20;;;;;;2609646;54;20423;-70
2023/03/24 09:07:47;;;;;;;9.13;8.03;;;15.10;54.40;;;;;;2611115;54;20411;-70
2023/03/24 09:13:34;;;;;;;9.50;8.03;;;15.70;45.30;;;;;;2610491;47;20928;-69
2023/03/24 09:19:22;;;;;;;8.80;8.00;;;14.30;42.70;;;;;;2611773;54;20791;-69
2023/03/24 09:25:12;;;;;;;7.63;6.90;;;14.50;38.10;;;;;;2612662;31;20596;-71
2023/03/24 09:31:04;;;;;;;8.80;7.50;;;14.60;45.30;;;;;;2612629;46;20458;-69
2023/03/24 09:36:51;;;;;;;11.13;8.00;;;15.40;38.20;;;;;;2607804;54;20432;-70
2023/03/24 09:42:40;;;;;;;9.73;9.03;;;14.30;43.60;;;;;;2614183;54;20158;-70
2023/03/24 09:48:46;;;;;;;12.47;10.27;;;15.10;41.40;;;;;;2611901;54;20486;-70
2023/03/24 09:54:37;;;;;;;9.20;8.40;;;14.70;33.60;;;;;;2611222;54;20455;-70
2023/03/24 10:00:28;;;;;;;14.50;9.57;;;15.10;39.70;;;;;;2613699;46;20610;-72
2023/03/24 10:03:14;;;;;;;11.10;8.60;;;14.30;40.00;;;;;;2610740;54;21837;-70
2023/03/24 10:12:18;;;;;;;8.30;7.70;;;14.00;47.10;;;;;;2613390;54;20352;-70
2023/03/24 10:30:59;;;;;;;14.70;8.00;;;13.60;44.20;;;;;;2609873;54;20387;-69
2023/03/24 10:36:47;;;;;;;9.20;8.50;;;15.00;36.40;;;;;;2611434;54;20399;-70
2023/03/24 10:42:35;;;;;;;11.27;9.50;;;14.10;44.50;;;;;;2612968;54;20256;-68
2023/03/24 10:48:39;;;;;;;9.67;8.90;;;14.80;39.60;;;;;;2611970;46;20426;-70
2023/03/24 10:54:28;;;;;;;8.30;7.50;;;15.20;30.60;;;;;;2612468;54;20391;-70
2023/03/24 11:00:25;;;;;;;10.03;7.73;;;14.50;38.40;;;;;;2612716;54;20439;-70
2023/03/24 11:12:33;;;;;;;9.83;8.83;;;14.60;29.20;;;;;;2610049;54;20952;-71
2023/03/24 11:18:21;;;;;;;8.43;7.93;;;15.00;26.80;;;;;;2612301;39;20830;-70
2023/03/24 11:24:14;;;;;;;9.97;9.33;;;15.10;21.40;;;;;;2609769;39;20586;-69
2023/03/24 11:30:02;;;;;;;9.30;8.70;;;15.20;17.70;;;;;;2612747;54;20415;-69
2023/03/24 11:35:51;;;;;;;10.60;9.90;;;16.10;11.10;;;;;;2610819;54;20392;-69
2023/03/24 11:47:59;;;;;;;10.10;9.40;;;15.90;10.80;;;;;;2610344;54;20981;-69
2023/03/24 11:53:49;;;;;;;9.87;9.27;;;16.40;8.50;;;;;;2610787;54;20963;-69
2023/03/24 11:59:56;;;;;;;10.47;9.80;;;15.90;8.30;;;;;;2611246;54;20391;-71
2023/03/24 12:03:18;;;;;;;9.73;9.23;;;16.30;9.70;;;;;;2611077;54;20418;-70
2023/03/24 12:25:38;;;;;;;12.13;10.50;;;16.70;9.10;;;;;;2612166;54;20524;-69
2023/03/24 12:31:47;;;;;;;11.33;10.20;;;16.00;10.40;;;;;;2613033;54;20504;-69
2023/03/24 12:34:51;;;;;;;10.30;9.60;;;16.90;11.40;;;;;;2610842;46;20443;-70
2023/03/24 12:47:59;;;;;;;10.40;9.80;;;16.60;6.20;;;;;;2608368;54;21023;-69
2023/03/24 13:10:39;;;;;;;8.93;8.33;;;15.40;11.10;;;;;;2611679;54;20434;-70
2023/03/24 13:16:32;;;;;;;14.23;7.97;;;15.00;12.10;;;;;;2610547;54;20387;-70
2023/03/24 13:22:22;;;;;;;10.00;9.60;;;15.00;11.60;;;;;;2610938;54;20363;-70
2023/03/24 13:34:29;;;;;;;10.90;10.03;;;14.90;15.10;;;;;;2610567;54;20394;-70
2023/03/24 13:40:24;;;;;;;10.10;9.40;;;14.90;17.80;;;;;;2611976;54;20431;-69
2023/03/24 13:46:12;;;;;;;10.13;9.00;;;14.60;21.50;;;;;;2613493;54;20395;-70
2023/03/24 13:52:05;;;;;;;11.83;10.83;;;14.30;26.30;;;;;;2611718;54;21077;-70
2023/03/24 13:58:00;;;;;;;6.60;3.03;;;12.70;99.90;;;;;;2612637;54;20391;-69
2023/03/24 14:04:19;;;;;;;5.80;3.20;;;11.30;99.90;;;;;;2610872;54;20395;-70
2023/03/24 14:10:12;;;;;;;11.77;2.40;;;12.90;99.90;;;;;;2612295;54;20435;-70
2023/03/24 14:19:28;;;;;;;6.90;2.83;;;15.70;99.90;;;;;;2612287;54;20410;-70
2023/03/24 14:25:16;;;;;;;3.80;2.53;;;14.90;99.90;;;;;;2612372;54;20383;-70
2023/03/24 14:31:14;;;;;;;3.70;2.43;;;13.90;99.90;;;;;;2612817;54;20141;-70
2023/03/24 14:37:06;;;;;;;4.07;3.67;;;13.70;99.90;;;;;;2611272;54;20411;-70
2023/03/24 14:43:00;;;;;;;2.90;2.50;;;12.90;99.90;;;;;;2612099;54;20403;-71
2023/03/24 15:01:26;;;;;;;8.97;2.90;;;11.90;99.90;;;;;;2611831;54;20395;-71
2023/03/24 15:07:14;;;;;;;7.43;3.30;;;12.70;99.90;;;;;;2610190;54;20416;-70
2023/03/24 15:22:41;;;;;;;6.57;2.20;;;14.20;99.90;;;;;;2609524;54;20989;-69
2023/03/24 15:28:30;;;;;;;2.63;1.80;;;13.50;99.90;;;;;;2612682;39;20805;-70
2023/03/24 15:34:35;;;;;;;6.13;3.13;;;13.10;99.90;;;;;;2612663;54;22549;-71
2023/03/24 15:40:26;;;;;;;4.90;2.83;;;13.00;99.90;;;;;;2612865;54;20483;-70
2023/03/24 15:46:29;;;;;;;5.90;3.00;;;12.90;99.90;;;;;;2612162;54;20411;-69
2023/03/24 15:52:37;;;;;;;4.60;2.30;;;12.70;99.90;;;;;;2610807;54;20391;-70
2023/03/24 15:58:32;;;;;;;2.80;2.13;;;12.50;99.90;;;;;;2613249;54;20994;-70
2023/03/24 16:04:20;;;;;;;3.20;1.70;;;12.30;99.90;;;;;;2612112;54;20395;-68
2023/03/24 16:10:43;;;;;;;4.30;2.20;;;11.70;99.90;;;;;;2609140;54;20388;-70
2023/03/24 16:16:36;;;;;;;2.50;1.50;;;9.20;99.90;;;;;;2609461;54;20470;-69
2023/03/24 16:19:23;;;;;;;2.40;1.20;;;9.10;99.90;;;;;;2608555;39;20823;-69
2023/03/24 16:25:13;;;;;;;2.47;1.67;;;9.30;99.90;;;;;;2609043;54;20451;-69
2023/03/24 16:31:03;;;;;;;7.03;2.40;;;9.40;99.90;;;;;;2608139;54;20496;-69
2023/03/24 16:36:53;;;;;;;2.30;1.97;;;9.60;99.90;;;;;;2607851;54;20578;-70
2023/03/24 16:42:40;;;;;;;9.03;6.53;;;11.60;99.90;;;;;;2612035;54;20359;-70
2023/03/24 16:48:28;;;;;;;4.10;2.40;;;11.90;99.90;;;;;;2612823;54;20250;-69
2023/03/24 16:54:15;;;;;;;3.20;2.20;;;12.10;99.90;;;;;;2613101;54;20162;-69
2023/03/24 17:00:09;;;;;;;3.83;2.17;;;12.30;99.90;;;;;;2613330;54;20126;-69
2023/03/24 17:05:57;;;;;;;3.30;2.50;;;11.80;99.90;;;;;;2612280;54;20403;-69
2023/03/24 17:11:49;;;;;;;2.40;1.90;;;11.40;99.90;;;;;;2613215;54;20158;-70
2023/03/24 17:14:51;;;;;;;2.80;1.90;;;11.40;99.90;;;;;;2612987;54;21250;-69
2023/03/24 17:17:17;;;;;;;3.80;1.60;;;10.70;99.90;;;;;;2613505;39;20841;-69
2023/03/24 17:23:08;;;;;;;3.30;2.00;;;10.30;99.90;;;;;;2612627;54;20254;-70
2023/03/24 17:28:55;;;;;;;3.37;1.97;;;10.00;99.90;;;;;;2607360;54;20438;-70
2023/03/24 17:34:47;;;;;;;2.90;2.00;;;9.80;99.90;;;;;;2610259;54;20149;-70
2023/03/24 17:40:34;;;;;;;2.83;1.73;;;9.70;99.90;;;;;;2614879;54;20446;-69
2023/03/24 17:46:22;;;;;;;4.47;2.67;;;9.70;99.90;;;;;;2612363;54;20411;-69
2023/03/24 17:52:10;;;;;;;2.60;2.40;;;9.60;99.90;;;;;;2614519;54;20134;-70
2023/03/24 17:57:57;;;;;;;3.97;2.70;;;9.60;99.90;;;;;;2611072;54;20158;-69
2023/03/24 18:03:48;;;;;;;4.10;3.00;;;9.60;99.90;;;;;;2614195;54;20133;-69
2023/03/24 18:09:36;;;;;;;14.00;11.47;;;9.80;99.90;;;;;;2612414;54;20388;-70
2023/03/24 18:19:23;;;;;;;98.17;88.27;;;9.70;99.90;;;;;;2612963;54;20547;-70
2023/03/24 18:25:14;;;;;;;4.07;2.90;;;9.50;99.90;;;;;;2612415;54;20439;-69
2023/03/24 18:31:07;;;;;;;4.43;3.73;;;9.70;99.90;;;;;;2613281;54;20388;-70
2023/03/24 18:36:55;;;;;;;8.93;5.10;;;9.70;99.90;;;;;;2612869;54;20945;-70
2023/03/24 18:42:43;;;;;;;151.17;123.00;;;9.50;99.90;;;;;;2614248;54;20418;-69
2023/03/24 18:48:30;;;;;;;8.80;7.90;;;9.70;99.90;;;;;;2614681;54;20150;-71
2023/03/24 18:54:18;;;;;;;3.67;3.37;;;9.90;99.90;;;;;;2614024;54;20166;-70
2023/03/24 19:00:08;;;;;;;9.03;7.17;;;10.00;99.90;;;;;;2614205;54;20170;-70
2023/03/24 19:06:01;;;;;;;42.83;29.57;;;10.00;99.90;;;;;;2614107;54;20384;-70
2023/03/24 19:11:48;;;;;;;5.50;3.50;;;9.90;99.90;;;;;;2612866;54;20402;-71
2023/03/24 19:14:54;;;;;;;4.03;3.10;;;10.00;99.90;;;;;;2613484;54;20958;-69
2023/03/24 19:17:22;;;;;;;3.20;2.50;;;10.10;99.90;;;;;;2614495;54;20411;-70
2023/03/24 19:23:10;;;;;;;2.70;2.50;;;10.20;99.90;;;;;;2612843;54;21175;-70
2023/03/24 19:28:58;;;;;;;4.67;2.47;;;10.20;99.90;;;;;;2612354;46;20435;-70
2023/03/24 19:34:45;;;;;;;4.97;3.57;;;10.40;99.90;;;;;;2611031;54;20138;-70
2023/03/24 19:40:33;;;;;;;4.00;3.20;;;10.50;99.90;;;;;;2612690;54;20134;-69
2023/03/24 19:46:21;;;;;;;5.33;3.67;;;10.60;99.90;;;;;;2613298;54;20183;-70
2023/03/24 19:52:09;;;;;;;8.23;3.83;;;10.70;99.90;;;;;;2611403;54;20278;-70
2023/03/24 19:57:58;;;;;;;5.43;3.60;;;10.80;99.90;;;;;;2614439;54;20127;-69
2023/03/24 20:03:46;;;;;;;4.63;2.80;;;10.90;99.90;;;;;;2613994;54;20394;-70
2023/03/24 20:09:34;;;;;;;4.13;3.10;;;10.80;99.90;;;;;;2613383;54;20154;-71
2023/03/24 20:19:24;;;;;;;5.13;3.50;;;10.70;99.90;;;;;;2613400;54;20530;-70
2023/03/24 20:25:14;;;;;;;7.20;5.03;;;10.70;99.90;;;;;;2613328;54;20415;-69
2023/03/24 20:31:03;;;;;;;5.07;3.83;;;10.60;99.90;;;;;;2613162;54;20399;-70
2023/03/24 20:36:51;;;;;;;7.80;5.50;;;10.60;99.90;;;;;;2612933;54;20515;-69
2023/03/24 20:42:38;;;;;;;6.50;3.47;;;10.50;99.90;;;;;;2612094;54;20134;-68
2023/03/24 20:48:27;;;;;;;5.27;4.10;;;10.50;99.90;;;;;;2612978;54;20274;-69
2023/03/24 20:54:14;;;;;;;7.23;3.53;;;10.40;99.90;;;;;;2613857;39;20857;-70
2023/03/24 21:00:10;;;;;;;4.90;2.63;;;10.30;99.90;;;;;;2613827;54;20146;-70
2023/03/24 21:05:58;;;;;;;7.00;5.50;;;10.30;99.90;;;;;;2613129;54;20402;-70
2023/03/24 21:11:46;;;;;;;10.53;3.90;;;10.20;99.90;;;;;;2613813;54;20234;-70
2023/03/24 21:14:51;;;;;;;4.07;3.10;;;10.20;99.90;;;;;;2612939;39;20785;-70
2023/03/24 21:17:17;;;;;;;2.20;2.00;;;10.20;99.90;;;;;;2612452;54;20158;-69
2023/03/24 21:23:08;;;;;;;4.53;3.33;;;10.10;99.90;;;;;;2613242;54;20410;-70
2023/03/24 21:28:56;;;;;;;3.00;2.60;;;10.20;99.90;;;;;;2613403;54;20418;-69
2023/03/24 21:34:44;;;;;;;6.73;2.73;;;10.10;99.90;;;;;;2614596;54;20151;-69
2023/03/24 21:40:32;;;;;;;3.67;2.70;;;10.10;99.90;;;;;;2614130;54;20470;-69
2023/03/24 21:46:21;;;;;;;6.90;2.43;;;10.00;99.90;;;;;;2613649;54;20150;-70
2023/03/24 21:52:08;;;;;;;3.17;2.70;;;10.00;99.90;;;;;;2613748;39;20962;-70
2023/03/24 21:57:56;;;;;;;2.10;1.87;;;10.00;99.90;;;;;;2612699;54;20146;-70
2023/03/24 22:03:45;;;;;;;3.30;2.90;;;10.00;99.90;;;;;;2613223;54;20180;-70
2023/03/24 22:09:33;;;;;;;2.97;2.50;;;9.90;99.90;;;;;;2606849;54;20388;-71
2023/03/24 22:12:36;;;;;;;6.70;2.60;;;9.90;99.90;;;;;;2612786;54;20515;-70
2023/03/24 22:21:50;;;;;;;2.77;2.23;;;10.00;99.90;;;;;;2613853;54;20387;-68
2023/03/24 22:27:38;;;;;;;3.03;2.30;;;10.10;99.90;;;;;;2613558;54;20395;-70
2023/03/24 22:33:25;;;;;;;3.27;2.40;;;10.20;99.90;;;;;;2614562;39;20790;-70
2023/03/24 22:39:13;;;;;;;3.40;2.77;;;10.20;99.90;;;;;;2613903;54;20263;-70
2023/03/24 22:45:00;;;;;;;3.83;2.80;;;10.10;99.90;;;;;;2614647;54;20166;-71
2023/03/24 22:50:49;;;;;;;3.10;2.80;;;10.20;99.90;;;;;;2613967;54;20210;-69
2023/03/24 22:56:36;;;;;;;3.90;2.70;;;10.30;99.90;;;;;;2615269;31;20847;-69
2023/03/24 23:02:24;;;;;;;3.13;2.83;;;10.40;99.90;;;;;;2613667;54;20135;-70
2023/03/24 23:08:14;;;;;;;3.30;2.20;;;10.10;99.90;;;;;;2614302;39;20560;-69
2023/03/24 23:14:04;;;;;;;3.93;2.00;;;9.90;99.90;;;;;;2614095;54;20418;-70
2023/03/24 23:19:52;;;;;;;5.30;2.20;;;9.80;99.90;;;;;;2613249;54;20399;-69
2023/03/24 23:25:42;;;;;;;3.40;2.20;;;9.70;99.90;;;;;;2614308;54;20932;-68
2023/03/24 23:31:29;;;;;;;2.80;2.33;;;9.80;99.90;;;;;;2614172;54;21092;-69
2023/03/24 23:37:17;;;;;;;3.83;3.53;;;9.80;99.90;;;;;;2613088;54;20199;-69
2023/03/24 23:43:05;;;;;;;4.23;2.37;;;9.80;99.90;;;;;;2612382;54;20158;-69
2023/03/24 23:48:53;;;;;;;2.80;2.20;;;9.90;99.90;;;;;;2614932;39;20721;-69
2023/03/24 23:54:41;;;;;;;4.90;2.37;;;9.90;99.90;;;;;;2610491;39;20718;-71
